sensor_id;sensor_type;location;lat;lon;timestamp;P1;durP1;ratioP1;P2;durP2;ratioP2
13592;SDS011;6867;50.998;4.250;2022-08-03T00:01:03;5.82;;;1.40;;
13592;SDS011;6867;50.998;4.250;2022-08-03T00:03:30;4.05;;;2.05;;
13592;SDS011;6867;50.998;4.250;2022-08-03T00:05:58;3.65;;;2.05;;
13592;SDS011;6867;50.998;4.250;2022-08-03T00:08:25;2.13;;;1.63;;
13592;SDS011;6867;50.998;4.250;2022-08-03T00:10:51;6.40;;;1.83;;
13592;SDS011;6867;50.998;4.250;2022-08-03T00:13:18;4.43;;;1.42;;
13592;SDS011;6867;50.998;4.250;2022-08-03T00:15:45;2.17;;;1.40;;
13592;SDS011;6867;50.998;4.250;2022-08-03T00:18:12;5.10;;;1.65;;
13592;SDS011;6867;50.998;4.250;2022-08-03T00:20:38;2.83;;;1.35;;
13592;SDS011;6867;50.998;4.250;2022-08-03T00:23:07;3.22;;;1.10;;
13592;SDS011;6867;50.998;4.250;2022-08-03T00:25:33;3.65;;;1.50;;
13592;SDS011;6867;50.998;4.250;2022-08-03T00:28:01;4.25;;;1.80;;
13592;SDS011;6867;50.998;4.250;2022-08-03T00:30:28;1.77;;;1.40;;
13592;SDS011;6867;50.998;4.250;2022-08-03T00:32:54;6.35;;;1.45;;
13592;SDS011;6867;50.998;4.250;2022-08-03T00:35:21;2.13;;;1.50;;
13592;SDS011;6867;50.998;4.250;2022-08-03T00:37:48;4.35;;;1.60;;
13592;SDS011;6867;50.998;4.250;2022-08-03T00:40:17;2.65;;;1.20;;
13592;SDS011;6867;50.998;4.250;2022-08-03T00:42:45;4.88;;;1.30;;
13592;SDS011;6867;50.998;4.250;2022-08-03T00:45:14;2.08;;;1.88;;
13592;SDS011;6867;50.998;4.250;2022-08-03T00:47:41;6.13;;;1.85;;
13592;SDS011;6867;50.998;4.250;2022-08-03T00:50:08;3.58;;;1.80;;
13592;SDS011;6867;50.998;4.250;2022-08-03T00:52:35;3.67;;;1.35;;
13592;SDS011;6867;50.998;4.250;2022-08-03T00:55:02;2.50;;;1.20;;
13592;SDS011;6867;50.998;4.250;2022-08-03T00:57:31;3.03;;;1.35;;
13592;SDS011;6867;50.998;4.250;2022-08-03T00:59:58;2.03;;;1.10;;
13592;SDS011;6867;50.998;4.250;2022-08-03T01:02:25;3.58;;;1.95;;
13592;SDS011;6867;50.998;4.250;2022-08-03T01:04:52;1.90;;;1.17;;
13592;SDS011;6867;50.998;4.250;2022-08-03T01:07:20;2.38;;;1.42;;
13592;SDS011;6867;50.998;4.250;2022-08-03T01:09:57;4.88;;;1.45;;
13592;SDS011;6867;50.998;4.250;2022-08-03T01:12:30;2.83;;;1.67;;
13592;SDS011;6867;50.998;4.250;2022-08-03T01:15:06;4.22;;;1.30;;
13592;SDS011;6867;50.998;4.250;2022-08-03T01:17:43;2.08;;;1.80;;
13592;SDS011;6867;50.998;4.250;2022-08-03T01:20:16;3.08;;;1.65;;
13592;SDS011;6867;50.998;4.250;2022-08-03T01:22:51;3.60;;;1.40;;
13592;SDS011;6867;50.998;4.250;2022-08-03T01:25:32;6.18;;;1.60;;
13592;SDS011;6867;50.998;4.250;2022-08-03T01:28:12;3.85;;;1.52;;
13592;SDS011;6867;50.998;4.250;2022-08-03T01:30:51;7.13;;;1.45;;
13592;SDS011;6867;50.998;4.250;2022-08-03T01:33:23;3.78;;;1.77;;
13592;SDS011;6867;50.998;4.250;2022-08-03T01:35:56;8.32;;;1.73;;
13592;SDS011;6867;50.998;4.250;2022-08-03T01:38:26;6.30;;;1.77;;
13592;SDS011;6867;50.998;4.250;2022-08-03T01:40:57;6.13;;;1.65;;
13592;SDS011;6867;50.998;4.250;2022-08-03T01:43:31;6.35;;;1.70;;
13592;SDS011;6867;50.998;4.250;2022-08-03T01:45:59;4.22;;;1.73;;
13592;SDS011;6867;50.998;4.250;2022-08-03T01:48:28;2.90;;;1.30;;
13592;SDS011;6867;50.998;4.250;2022-08-03T01:50:56;3.28;;;1.60;;
13592;SDS011;6867;50.998;4.250;2022-08-03T01:53:25;4.25;;;1.50;;
13592;SDS011;6867;50.998;4.250;2022-08-03T01:55:53;5.80;;;1.73;;
13592;SDS011;6867;50.998;4.250;2022-08-03T01:58:23;3.00;;;1.58;;
13592;SDS011;6867;50.998;4.250;2022-08-03T02:00:50;3.88;;;1.50;;
13592;SDS011;6867;50.998;4.250;2022-08-03T02:03:19;2.60;;;1.80;;
13592;SDS011;6867;50.998;4.250;2022-08-03T02:05:48;4.15;;;1.30;;
13592;SDS011;6867;50.998;4.250;2022-08-03T02:08:16;3.75;;;1.38;;
13592;SDS011;6867;50.998;4.250;2022-08-03T02:10:44;2.88;;;1.48;;
13592;SDS011;6867;50.998;4.250;2022-08-03T02:13:12;6.40;;;1.90;;
13592;SDS011;6867;50.998;4.250;2022-08-03T02:15:42;5.10;;;1.52;;
13592;SDS011;6867;50.998;4.250;2022-08-03T02:18:09;3.67;;;1.35;;
13592;SDS011;6867;50.998;4.250;2022-08-03T02:20:40;4.85;;;1.38;;
13592;SDS011;6867;50.998;4.250;2022-08-03T02:23:09;5.57;;;1.83;;
13592;SDS011;6867;50.998;4.250;2022-08-03T02:25:37;2.47;;;1.67;;
13592;SDS011;6867;50.998;4.250;2022-08-03T02:28:09;3.38;;;1.90;;
13592;SDS011;6867;50.998;4.250;2022-08-03T02:30:40;3.85;;;1.25;;
13592;SDS011;6867;50.998;4.250;2022-08-03T02:33:09;4.80;;;2.20;;
13592;SDS011;6867;50.998;4.250;2022-08-03T02:35:40;1.60;;;1.38;;
13592;SDS011;6867;50.998;4.250;2022-08-03T02:38:09;1.90;;;1.38;;
13592;SDS011;6867;50.998;4.250;2022-08-03T02:40:38;4.13;;;2.33;;
13592;SDS011;6867;50.998;4.250;2022-08-03T02:43:09;4.57;;;1.67;;
13592;SDS011;6867;50.998;4.250;2022-08-03T02:45:41;4.95;;;1.70;;
13592;SDS011;6867;50.998;4.250;2022-08-03T02:48:10;2.38;;;1.50;;
13592;SDS011;6867;50.998;4.250;2022-08-03T02:50:42;4.75;;;1.60;;
13592;SDS011;6867;50.998;4.250;2022-08-03T02:53:10;4.30;;;1.60;;
13592;SDS011;6867;50.998;4.250;2022-08-03T02:55:37;4.75;;;1.50;;
13592;SDS011;6867;50.998;4.250;2022-08-03T02:58:06;6.43;;;1.80;;
13592;SDS011;6867;50.998;4.250;2022-08-03T03:00:34;3.97;;;2.15;;
13592;SDS011;6867;50.998;4.250;2022-08-03T03:03:03;5.57;;;1.70;;
13592;SDS011;6867;50.998;4.250;2022-08-03T03:05:31;4.88;;;1.77;;
13592;SDS011;6867;50.998;4.250;2022-08-03T03:07:59;3.80;;;1.70;;
13592;SDS011;6867;50.998;4.250;2022-08-03T03:10:27;7.43;;;2.05;;
13592;SDS011;6867;50.998;4.250;2022-08-03T03:12:55;5.03;;;1.45;;
13592;SDS011;6867;50.998;4.250;2022-08-03T03:15:23;4.68;;;1.70;;
13592;SDS011;6867;50.998;4.250;2022-08-03T03:17:52;2.78;;;1.58;;
13592;SDS011;6867;50.998;4.250;2022-08-03T03:20:20;6.32;;;1.70;;
13592;SDS011;6867;50.998;4.250;2022-08-03T03:22:47;2.90;;;1.73;;
13592;SDS011;6867;50.998;4.250;2022-08-03T03:25:17;4.50;;;1.50;;
13592;SDS011;6867;50.998;4.250;2022-08-03T03:27:44;4.35;;;1.52;;
13592;SDS011;6867;50.998;4.250;2022-08-03T03:30:13;5.15;;;2.08;;
13592;SDS011;6867;50.998;4.250;2022-08-03T03:32:39;3.78;;;1.70;;
13592;SDS011;6867;50.998;4.250;2022-08-03T03:35:07;3.72;;;2.10;;
13592;SDS011;6867;50.998;4.250;2022-08-03T03:37:34;4.95;;;1.75;;
13592;SDS011;6867;50.998;4.250;2022-08-03T03:40:01;5.00;;;1.70;;
13592;SDS011;6867;50.998;4.250;2022-08-03T03:42:30;5.25;;;1.80;;
13592;SDS011;6867;50.998;4.250;2022-08-03T03:44:57;5.07;;;1.63;;
13592;SDS011;6867;50.998;4.250;2022-08-03T03:47:24;5.18;;;2.03;;
13592;SDS011;6867;50.998;4.250;2022-08-03T03:49:51;4.18;;;1.88;;
13592;SDS011;6867;50.998;4.250;2022-08-03T03:52:18;7.20;;;1.90;;
13592;SDS011;6867;50.998;4.250;2022-08-03T03:54:44;4.40;;;1.75;;
13592;SDS011;6867;50.998;4.250;2022-08-03T03:57:11;4.18;;;2.00;;
13592;SDS011;6867;50.998;4.250;2022-08-03T03:59:39;3.92;;;1.65;;
13592;SDS011;6867;50.998;4.250;2022-08-03T04:02:07;2.00;;;1.60;;
13592;SDS011;6867;50.998;4.250;2022-08-03T04:04:36;4.13;;;2.17;;
13592;SDS011;6867;50.998;4.250;2022-08-03T04:07:20;4.75;;;1.60;;
13592;SDS011;6867;50.998;4.250;2022-08-03T04:10:09;4.20;;;1.67;;
13592;SDS011;6867;50.998;4.250;2022-08-03T04:12:58;3.58;;;1.50;;
13592;SDS011;6867;50.998;4.250;2022-08-03T04:15:28;5.07;;;1.70;;
13592;SDS011;6867;50.998;4.250;2022-08-03T04:17:58;7.85;;;1.85;;
13592;SDS011;6867;50.998;4.250;2022-08-03T04:20:27;6.95;;;2.10;;
13592;SDS011;6867;50.998;4.250;2022-08-03T04:22:57;4.40;;;2.28;;
13592;SDS011;6867;50.998;4.250;2022-08-03T04:25:26;4.13;;;2.00;;
13592;SDS011;6867;50.998;4.250;2022-08-03T04:27:55;3.88;;;1.60;;
13592;SDS011;6867;50.998;4.250;2022-08-03T04:30:24;6.50;;;1.95;;
13592;SDS011;6867;50.998;4.250;2022-08-03T04:32:54;2.17;;;1.80;;
13592;SDS011;6867;50.998;4.250;2022-08-03T04:35:22;3.08;;;2.15;;
13592;SDS011;6867;50.998;4.250;2022-08-03T04:37:51;5.38;;;2.20;;
13592;SDS011;6867;50.998;4.250;2022-08-03T04:40:21;4.80;;;2.17;;
13592;SDS011;6867;50.998;4.250;2022-08-03T04:42:52;7.53;;;1.92;;
13592;SDS011;6867;50.998;4.250;2022-08-03T04:45:21;3.38;;;2.08;;
13592;SDS011;6867;50.998;4.250;2022-08-03T04:47:49;4.25;;;2.10;;
13592;SDS011;6867;50.998;4.250;2022-08-03T04:50:18;3.78;;;2.13;;
13592;SDS011;6867;50.998;4.250;2022-08-03T04:52:45;3.03;;;2.00;;
13592;SDS011;6867;50.998;4.250;2022-08-03T04:55:12;8.30;;;2.45;;
13592;SDS011;6867;50.998;4.250;2022-08-03T04:57:51;3.67;;;2.20;;
13592;SDS011;6867;50.998;4.250;2022-08-03T05:00:18;4.05;;;1.80;;
13592;SDS011;6867;50.998;4.250;2022-08-03T05:02:45;5.13;;;2.08;;
13592;SDS011;6867;50.998;4.250;2022-08-03T05:05:11;3.65;;;2.25;;
13592;SDS011;6867;50.998;4.250;2022-08-03T05:07:41;4.05;;;1.90;;
13592;SDS011;6867;50.998;4.250;2022-08-03T05:10:08;5.47;;;1.85;;
13592;SDS011;6867;50.998;4.250;2022-08-03T05:12:37;6.15;;;2.60;;
13592;SDS011;6867;50.998;4.250;2022-08-03T05:15:04;4.35;;;1.95;;
13592;SDS011;6867;50.998;4.250;2022-08-03T05:17:32;6.75;;;2.30;;
13592;SDS011;6867;50.998;4.250;2022-08-03T05:19:59;4.75;;;2.55;;
13592;SDS011;6867;50.998;4.250;2022-08-03T05:22:28;5.70;;;2.65;;
13592;SDS011;6867;50.998;4.250;2022-08-03T05:24:56;5.43;;;2.38;;
13592;SDS011;6867;50.998;4.250;2022-08-03T05:27:23;5.70;;;2.45;;
13592;SDS011;6867;50.998;4.250;2022-08-03T05:29:50;7.97;;;2.30;;
13592;SDS011;6867;50.998;4.250;2022-08-03T05:32:16;5.93;;;2.25;;
13592;SDS011;6867;50.998;4.250;2022-08-03T05:34:44;4.85;;;2.65;;
13592;SDS011;6867;50.998;4.250;2022-08-03T05:37:10;8.02;;;2.40;;
13592;SDS011;6867;50.998;4.250;2022-08-03T05:39:37;5.07;;;2.17;;
13592;SDS011;6867;50.998;4.250;2022-08-03T05:42:06;7.60;;;2.97;;
13592;SDS011;6867;50.998;4.250;2022-08-03T05:44:32;4.70;;;2.13;;
13592;SDS011;6867;50.998;4.250;2022-08-03T05:47:02;3.42;;;2.03;;
13592;SDS011;6867;50.998;4.250;2022-08-03T05:49:29;7.50;;;2.30;;
13592;SDS011;6867;50.998;4.250;2022-08-03T05:51:56;6.05;;;1.80;;
13592;SDS011;6867;50.998;4.250;2022-08-03T05:54:22;6.80;;;2.00;;
13592;SDS011;6867;50.998;4.250;2022-08-03T05:56:49;7.13;;;1.83;;
13592;SDS011;6867;50.998;4.250;2022-08-03T05:59:17;5.30;;;1.90;;
13592;SDS011;6867;50.998;4.250;2022-08-03T06:01:44;5.10;;;2.30;;
13592;SDS011;6867;50.998;4.250;2022-08-03T06:04:11;4.85;;;2.25;;
13592;SDS011;6867;50.998;4.250;2022-08-03T06:06:38;5.35;;;1.95;;
13592;SDS011;6867;50.998;4.250;2022-08-03T06:09:05;4.68;;;2.28;;
13592;SDS011;6867;50.998;4.250;2022-08-03T06:11:31;4.60;;;1.80;;
13592;SDS011;6867;50.998;4.250;2022-08-03T06:13:58;7.78;;;2.05;;
13592;SDS011;6867;50.998;4.250;2022-08-03T06:16:26;3.35;;;1.80;;
13592;SDS011;6867;50.998;4.250;2022-08-03T06:18:53;9.82;;;2.63;;
13592;SDS011;6867;50.998;4.250;2022-08-03T06:21:20;6.55;;;2.30;;
13592;SDS011;6867;50.998;4.250;2022-08-03T06:23:46;7.20;;;2.05;;
13592;SDS011;6867;50.998;4.250;2022-08-03T06:26:13;7.03;;;2.28;;
13592;SDS011;6867;50.998;4.250;2022-08-03T06:28:40;2.00;;;1.60;;
13592;SDS011;6867;50.998;4.250;2022-08-03T06:31:09;10.73;;;2.35;;
13592;SDS011;6867;50.998;4.250;2022-08-03T06:33:37;4.53;;;1.90;;
13592;SDS011;6867;50.998;4.250;2022-08-03T06:36:04;5.30;;;1.90;;
13592;SDS011;6867;50.998;4.250;2022-08-03T06:38:31;5.32;;;1.83;;
13592;SDS011;6867;50.998;4.250;2022-08-03T06:40:58;6.32;;;2.28;;
13592;SDS011;6867;50.998;4.250;2022-08-03T06:43:25;5.05;;;2.08;;
13592;SDS011;6867;50.998;4.250;2022-08-03T06:45:51;4.97;;;1.75;;
13592;SDS011;6867;50.998;4.250;2022-08-03T06:48:18;2.88;;;1.63;;
13592;SDS011;6867;50.998;4.250;2022-08-03T06:50:46;3.75;;;1.63;;
13592;SDS011;6867;50.998;4.250;2022-08-03T06:53:13;4.70;;;1.70;;
13592;SDS011;6867;50.998;4.250;2022-08-03T06:55:39;2.42;;;1.55;;
13592;SDS011;6867;50.998;4.250;2022-08-03T06:58:06;4.95;;;1.40;;
13592;SDS011;6867;50.998;4.250;2022-08-03T07:00:33;5.18;;;1.58;;
13592;SDS011;6867;50.998;4.250;2022-08-03T07:03:00;6.78;;;1.60;;
13592;SDS011;6867;50.998;4.250;2022-08-03T07:05:26;4.63;;;1.42;;
13592;SDS011;6867;50.998;4.250;2022-08-03T07:07:56;2.22;;;1.25;;
13592;SDS011;6867;50.998;4.250;2022-08-03T07:10:23;3.28;;;1.10;;
13592;SDS011;6867;50.998;4.250;2022-08-03T07:12:51;4.97;;;1.30;;
13592;SDS011;6867;50.998;4.250;2022-08-03T07:15:18;5.43;;;1.50;;
13592;SDS011;6867;50.998;4.250;2022-08-03T07:17:45;2.85;;;1.40;;
13592;SDS011;6867;50.998;4.250;2022-08-03T07:20:12;8.95;;;1.70;;
13592;SDS011;6867;50.998;4.250;2022-08-03T07:22:39;6.30;;;1.58;;
13592;SDS011;6867;50.998;4.250;2022-08-03T07:25:08;6.47;;;1.00;;
13592;SDS011;6867;50.998;4.250;2022-08-03T07:27:35;5.47;;;1.33;;
13592;SDS011;6867;50.998;4.250;2022-08-03T07:30:04;4.93;;;1.63;;
13592;SDS011;6867;50.998;4.250;2022-08-03T07:32:32;2.45;;;1.40;;
13592;SDS011;6867;50.998;4.250;2022-08-03T07:34:59;5.28;;;1.40;;
13592;SDS011;6867;50.998;4.250;2022-08-03T07:37:26;7.60;;;1.90;;
13592;SDS011;6867;50.998;4.250;2022-08-03T07:39:53;6.82;;;1.65;;
13592;SDS011;6867;50.998;4.250;2022-08-03T07:42:21;3.75;;;1.30;;
13592;SDS011;6867;50.998;4.250;2022-08-03T07:44:48;9.55;;;1.20;;
13592;SDS011;6867;50.998;4.250;2022-08-03T07:47:16;3.28;;;1.50;;
13592;SDS011;6867;50.998;4.250;2022-08-03T07:49:44;2.75;;;1.40;;
13592;SDS011;6867;50.998;4.250;2022-08-03T07:52:10;3.47;;;1.40;;
13592;SDS011;6867;50.998;4.250;2022-08-03T07:54:54;5.65;;;1.50;;
13592;SDS011;6867;50.998;4.250;2022-08-03T07:57:22;6.00;;;1.85;;
13592;SDS011;6867;50.998;4.250;2022-08-03T07:59:49;4.13;;;1.70;;
13592;SDS011;6867;50.998;4.250;2022-08-03T08:02:16;6.18;;;1.45;;
13592;SDS011;6867;50.998;4.250;2022-08-03T08:04:42;6.60;;;1.52;;
13592;SDS011;6867;50.998;4.250;2022-08-03T08:07:09;7.20;;;1.70;;
13592;SDS011;6867;50.998;4.250;2022-08-03T08:09:36;6.63;;;1.60;;
13592;SDS011;6867;50.998;4.250;2022-08-03T08:12:03;5.40;;;1.15;;
13592;SDS011;6867;50.998;4.250;2022-08-03T08:14:33;8.32;;;1.65;;
13592;SDS011;6867;50.998;4.250;2022-08-03T08:17:00;5.65;;;1.85;;
13592;SDS011;6867;50.998;4.250;2022-08-03T08:19:27;7.82;;;2.00;;
13592;SDS011;6867;50.998;4.250;2022-08-03T08:21:53;4.18;;;1.70;;
13592;SDS011;6867;50.998;4.250;2022-08-03T08:24:20;9.82;;;1.58;;
13592;SDS011;6867;50.998;4.250;2022-08-03T08:26:47;7.63;;;1.80;;
13592;SDS011;6867;50.998;4.250;2022-08-03T08:29:14;6.00;;;1.60;;
13592;SDS011;6867;50.998;4.250;2022-08-03T08:31:42;8.68;;;1.50;;
13592;SDS011;6867;50.998;4.250;2022-08-03T08:34:08;6.15;;;1.63;;
13592;SDS011;6867;50.998;4.250;2022-08-03T08:36:35;9.05;;;1.50;;
13592;SDS011;6867;50.998;4.250;2022-08-03T08:39:02;6.05;;;1.70;;
13592;SDS011;6867;50.998;4.250;2022-08-03T08:41:29;6.88;;;1.70;;
13592;SDS011;6867;50.998;4.250;2022-08-03T08:43:58;6.05;;;1.42;;
13592;SDS011;6867;50.998;4.250;2022-08-03T08:46:25;8.85;;;1.73;;
13592;SDS011;6867;50.998;4.250;2022-08-03T08:48:54;8.25;;;1.55;;
13592;SDS011;6867;50.998;4.250;2022-08-03T08:51:21;3.45;;;1.60;;
13592;SDS011;6867;50.998;4.250;2022-08-03T08:53:54;6.15;;;1.55;;
13592;SDS011;6867;50.998;4.250;2022-08-03T08:56:26;3.70;;;1.58;;
13592;SDS011;6867;50.998;4.250;2022-08-03T08:58:55;5.88;;;1.75;;
13592;SDS011;6867;50.998;4.250;2022-08-03T09:01:24;3.97;;;1.42;;
13592;SDS011;6867;50.998;4.250;2022-08-03T09:03:51;9.68;;;1.65;;
13592;SDS011;6867;50.998;4.250;2022-08-03T09:06:20;5.45;;;1.63;;
13592;SDS011;6867;50.998;4.250;2022-08-03T09:08:47;7.07;;;1.60;;
13592;SDS011;6867;50.998;4.250;2022-08-03T09:11:14;6.07;;;1.90;;
13592;SDS011;6867;50.998;4.250;2022-08-03T09:13:41;6.20;;;1.48;;
13592;SDS011;6867;50.998;4.250;2022-08-03T09:16:09;8.13;;;1.80;;
13592;SDS011;6867;50.998;4.250;2022-08-03T09:18:40;5.38;;;1.70;;
13592;SDS011;6867;50.998;4.250;2022-08-03T09:21:18;6.50;;;1.50;;
13592;SDS011;6867;50.998;4.250;2022-08-03T09:23:48;8.82;;;1.75;;
13592;SDS011;6867;50.998;4.250;2022-08-03T09:26:19;9.93;;;1.30;;
13592;SDS011;6867;50.998;4.250;2022-08-03T09:28:54;5.47;;;1.40;;
13592;SDS011;6867;50.998;4.250;2022-08-03T09:31:28;8.82;;;1.75;;
13592;SDS011;6867;50.998;4.250;2022-08-03T09:33:56;5.45;;;1.40;;
13592;SDS011;6867;50.998;4.250;2022-08-03T09:36:40;5.95;;;1.40;;
13592;SDS011;6867;50.998;4.250;2022-08-03T09:39:09;5.30;;;1.40;;
13592;SDS011;6867;50.998;4.250;2022-08-03T09:41:38;6.95;;;1.73;;
13592;SDS011;6867;50.998;4.250;2022-08-03T09:44:05;3.45;;;1.20;;
13592;SDS011;6867;50.998;4.250;2022-08-03T09:46:46;6.88;;;1.48;;
13592;SDS011;6867;50.998;4.250;2022-08-03T09:49:14;7.35;;;1.83;;
13592;SDS011;6867;50.998;4.250;2022-08-03T09:51:42;6.88;;;1.60;;
13592;SDS011;6867;50.998;4.250;2022-08-03T09:54:09;3.83;;;1.25;;
13592;SDS011;6867;50.998;4.250;2022-08-03T09:56:37;5.38;;;1.10;;
13592;SDS011;6867;50.998;4.250;2022-08-03T09:59:05;7.00;;;1.73;;
13592;SDS011;6867;50.998;4.250;2022-08-03T10:01:32;6.53;;;1.40;;
13592;SDS011;6867;50.998;4.250;2022-08-03T10:04:00;4.07;;;1.10;;
13592;SDS011;6867;50.998;4.250;2022-08-03T10:06:27;3.13;;;1.27;;
13592;SDS011;6867;50.998;4.250;2022-08-03T10:09:04;4.47;;;1.40;;
13592;SDS011;6867;50.998;4.250;2022-08-03T10:11:34;3.00;;;1.33;;
13592;SDS011;6867;50.998;4.250;2022-08-03T10:14:05;6.35;;;1.70;;
13592;SDS011;6867;50.998;4.250;2022-08-03T10:16:35;3.47;;;1.08;;
13592;SDS011;6867;50.998;4.250;2022-08-03T10:19:03;2.22;;;0.80;;
13592;SDS011;6867;50.998;4.250;2022-08-03T10:21:33;5.43;;;1.30;;
13592;SDS011;6867;50.998;4.250;2022-08-03T10:24:02;2.75;;;1.42;;
13592;SDS011;6867;50.998;4.250;2022-08-03T10:26:31;3.45;;;1.30;;
13592;SDS011;6867;50.998;4.250;2022-08-03T10:29:02;3.90;;;1.42;;
13592;SDS011;6867;50.998;4.250;2022-08-03T10:31:33;4.57;;;1.23;;
13592;SDS011;6867;50.998;4.250;2022-08-03T10:34:04;6.07;;;2.05;;
13592;SDS011;6867;50.998;4.250;2022-08-03T10:36:36;4.38;;;1.27;;
13592;SDS011;6867;50.998;4.250;2022-08-03T10:39:05;3.83;;;1.42;;
13592;SDS011;6867;50.998;4.250;2022-08-03T10:41:35;2.67;;;1.30;;
13592;SDS011;6867;50.998;4.250;2022-08-03T10:44:05;2.58;;;1.27;;
13592;SDS011;6867;50.998;4.250;2022-08-03T10:46:35;4.25;;;1.60;;
13592;SDS011;6867;50.998;4.250;2022-08-03T10:49:04;6.20;;;1.50;;
13592;SDS011;6867;50.998;4.250;2022-08-03T10:51:32;2.35;;;1.15;;
13592;SDS011;6867;50.998;4.250;2022-08-03T10:54:00;2.60;;;1.00;;
13592;SDS011;6867;50.998;4.250;2022-08-03T10:56:40;6.53;;;1.10;;
13592;SDS011;6867;50.998;4.250;2022-08-03T11:05:39;3.00;;;1.13;;
13592;SDS011;6867;50.998;4.250;2022-08-03T11:08:17;4.15;;;1.48;;
13592;SDS011;6867;50.998;4.250;2022-08-03T11:10:48;1.77;;;1.30;;
13592;SDS011;6867;50.998;4.250;2022-08-03T11:13:17;3.55;;;1.17;;
13592;SDS011;6867;50.998;4.250;2022-08-03T11:15:45;4.32;;;1.40;;
13592;SDS011;6867;50.998;4.250;2022-08-03T11:18:13;3.38;;;1.25;;
13592;SDS011;6867;50.998;4.250;2022-08-03T11:20:47;3.30;;;1.10;;
13592;SDS011;6867;50.998;4.250;2022-08-03T11:23:15;4.95;;;1.20;;
13592;SDS011;6867;50.998;4.250;2022-08-03T11:28:37;5.00;;;1.42;;
13592;SDS011;6867;50.998;4.250;2022-08-03T11:34:13;4.45;;;1.20;;
13592;SDS011;6867;50.998;4.250;2022-08-03T11:39:46;2.72;;;1.10;;
13592;SDS011;6867;50.998;4.250;2022-08-03T11:45:05;1.48;;;1.05;;
13592;SDS011;6867;50.998;4.250;2022-08-03T11:47:34;3.00;;;0.93;;
13592;SDS011;6867;50.998;4.250;2022-08-03T11:50:03;3.00;;;1.00;;
13592;SDS011;6867;50.998;4.250;2022-08-03T11:52:33;5.55;;;0.98;;
13592;SDS011;6867;50.998;4.250;2022-08-03T11:55:01;1.98;;;0.90;;
13592;SDS011;6867;50.998;4.250;2022-08-03T11:57:34;5.82;;;1.00;;
13592;SDS011;6867;50.998;4.250;2022-08-03T12:00:01;3.28;;;1.10;;
13592;SDS011;6867;50.998;4.250;2022-08-03T12:02:53;4.80;;;0.95;;
13592;SDS011;6867;50.998;4.250;2022-08-03T12:05:34;1.98;;;0.82;;
13592;SDS011;6867;50.998;4.250;2022-08-03T12:08:06;4.32;;;0.93;;
13592;SDS011;6867;50.998;4.250;2022-08-03T12:10:33;3.60;;;1.10;;
13592;SDS011;6867;50.998;4.250;2022-08-03T12:13:01;3.00;;;1.10;;
13592;SDS011;6867;50.998;4.250;2022-08-03T12:15:33;2.88;;;1.10;;
13592;SDS011;6867;50.998;4.250;2022-08-03T12:18:02;1.48;;;1.10;;
13592;SDS011;6867;50.998;4.250;2022-08-03T12:20:39;2.65;;;0.85;;
13592;SDS011;6867;50.998;4.250;2022-08-03T12:23:06;1.63;;;0.88;;
13592;SDS011;6867;50.998;4.250;2022-08-03T12:25:34;1.98;;;0.73;;
13592;SDS011;6867;50.998;4.250;2022-08-03T12:28:06;2.42;;;1.05;;
13592;SDS011;6867;50.998;4.250;2022-08-03T12:30:35;3.17;;;0.93;;
13592;SDS011;6867;50.998;4.250;2022-08-03T12:33:18;3.17;;;0.80;;
13592;SDS011;6867;50.998;4.250;2022-08-03T12:35:47;2.05;;;0.90;;
13592;SDS011;6867;50.998;4.250;2022-08-03T12:38:19;4.20;;;0.98;;
13592;SDS011;6867;50.998;4.250;2022-08-03T12:40:57;3.35;;;0.98;;
13592;SDS011;6867;50.998;4.250;2022-08-03T12:43:31;4.72;;;0.93;;
13592;SDS011;6867;50.998;4.250;2022-08-03T12:46:11;3.15;;;1.35;;
13592;SDS011;6867;50.998;4.250;2022-08-03T12:51:33;1.70;;;0.90;;
13592;SDS011;6867;50.998;4.250;2022-08-03T12:54:01;3.97;;;0.88;;
13592;SDS011;6867;50.998;4.250;2022-08-03T12:56:29;2.35;;;0.60;;
13592;SDS011;6867;50.998;4.250;2022-08-03T12:58:56;2.50;;;0.73;;
13592;SDS011;6867;50.998;4.250;2022-08-03T13:01:22;4.13;;;1.02;;
13592;SDS011;6867;50.998;4.250;2022-08-03T13:03:51;2.47;;;0.80;;
13592;SDS011;6867;50.998;4.250;2022-08-03T13:06:20;2.67;;;0.75;;
13592;SDS011;6867;50.998;4.250;2022-08-03T13:08:48;3.55;;;0.82;;
13592;SDS011;6867;50.998;4.250;2022-08-03T13:11:19;3.00;;;0.98;;
13592;SDS011;6867;50.998;4.250;2022-08-03T13:13:47;1.65;;;1.00;;
13592;SDS011;6867;50.998;4.250;2022-08-03T13:16:14;1.70;;;0.88;;
13592;SDS011;6867;50.998;4.250;2022-08-03T13:18:41;1.60;;;1.00;;
13592;SDS011;6867;50.998;4.250;2022-08-03T13:21:10;4.07;;;0.98;;
13592;SDS011;6867;50.998;4.250;2022-08-03T13:23:39;2.35;;;0.80;;
13592;SDS011;6867;50.998;4.250;2022-08-03T13:26:06;1.58;;;0.85;;
13592;SDS011;6867;50.998;4.250;2022-08-03T13:28:33;6.03;;;0.90;;
13592;SDS011;6867;50.998;4.250;2022-08-03T13:30:59;1.27;;;1.05;;
13592;SDS011;6867;50.998;4.250;2022-08-03T13:33:26;1.00;;;0.70;;
13592;SDS011;6867;50.998;4.250;2022-08-03T13:35:53;1.35;;;0.82;;
13592;SDS011;6867;50.998;4.250;2022-08-03T13:38:20;1.45;;;0.80;;
13592;SDS011;6867;50.998;4.250;2022-08-03T13:40:48;1.13;;;0.80;;
13592;SDS011;6867;50.998;4.250;2022-08-03T13:43:16;1.65;;;0.65;;
13592;SDS011;6867;50.998;4.250;2022-08-03T13:45:43;3.08;;;1.00;;
13592;SDS011;6867;50.998;4.250;2022-08-03T13:48:10;2.67;;;1.08;;
13592;SDS011;6867;50.998;4.250;2022-08-03T13:50:36;3.80;;;0.80;;
13592;SDS011;6867;50.998;4.250;2022-08-03T13:53:03;3.78;;;0.80;;
13592;SDS011;6867;50.998;4.250;2022-08-03T13:55:30;2.60;;;0.63;;
13592;SDS011;6867;50.998;4.250;2022-08-03T13:57:59;2.08;;;0.80;;
13592;SDS011;6867;50.998;4.250;2022-08-03T14:00:25;2.60;;;1.13;;
13592;SDS011;6867;50.998;4.250;2022-08-03T14:02:52;2.33;;;0.90;;
13592;SDS011;6867;50.998;4.250;2022-08-03T14:05:19;0.98;;;0.80;;
13592;SDS011;6867;50.998;4.250;2022-08-03T14:07:45;1.67;;;0.80;;
13592;SDS011;6867;50.998;4.250;2022-08-03T14:10:13;3.15;;;0.85;;
13592;SDS011;6867;50.998;4.250;2022-08-03T14:12:41;2.85;;;1.00;;
13592;SDS011;6867;50.998;4.250;2022-08-03T14:15:09;1.45;;;1.00;;
13592;SDS011;6867;50.998;4.250;2022-08-03T14:17:37;1.40;;;0.70;;
13592;SDS011;6867;50.998;4.250;2022-08-03T14:20:05;4.95;;;1.00;;
13592;SDS011;6867;50.998;4.250;2022-08-03T14:22:32;3.20;;;1.00;;
13592;SDS011;6867;50.998;4.250;2022-08-03T14:24:59;3.15;;;0.98;;
13592;SDS011;6867;50.998;4.250;2022-08-03T14:27:26;5.85;;;1.00;;
13592;SDS011;6867;50.998;4.250;2022-08-03T14:29:53;1.30;;;0.80;;
13592;SDS011;6867;50.998;4.250;2022-08-03T14:32:25;3.63;;;0.80;;
13592;SDS011;6867;50.998;4.250;2022-08-03T14:34:52;1.30;;;0.95;;
13592;SDS011;6867;50.998;4.250;2022-08-03T14:37:18;1.60;;;0.95;;
13592;SDS011;6867;50.998;4.250;2022-08-03T14:39:45;1.88;;;1.08;;
13592;SDS011;6867;50.998;4.250;2022-08-03T14:42:12;1.95;;;0.85;;
13592;SDS011;6867;50.998;4.250;2022-08-03T14:44:39;5.72;;;1.00;;
13592;SDS011;6867;50.998;4.250;2022-08-03T14:47:06;3.10;;;1.05;;
13592;SDS011;6867;50.998;4.250;2022-08-03T14:49:34;1.85;;;1.08;;
13592;SDS011;6867;50.998;4.250;2022-08-03T14:52:00;2.40;;;1.00;;
13592;SDS011;6867;50.998;4.250;2022-08-03T14:54:27;2.13;;;1.25;;
13592;SDS011;6867;50.998;4.250;2022-08-03T14:56:55;4.00;;;1.00;;
13592;SDS011;6867;50.998;4.250;2022-08-03T14:59:23;6.50;;;1.23;;
13592;SDS011;6867;50.998;4.250;2022-08-03T15:01:49;4.43;;;1.10;;
13592;SDS011;6867;50.998;4.250;2022-08-03T15:04:16;2.15;;;0.90;;
13592;SDS011;6867;50.998;4.250;2022-08-03T15:06:44;2.00;;;1.00;;
13592;SDS011;6867;50.998;4.250;2022-08-03T15:09:11;3.50;;;0.85;;
13592;SDS011;6867;50.998;4.250;2022-08-03T15:11:38;1.10;;;0.98;;
13592;SDS011;6867;50.998;4.250;2022-08-03T15:14:05;3.78;;;1.10;;
13592;SDS011;6867;50.998;4.250;2022-08-03T15:16:32;2.05;;;1.10;;
13592;SDS011;6867;50.998;4.250;2022-08-03T15:18:58;2.50;;;1.17;;
13592;SDS011;6867;50.998;4.250;2022-08-03T15:21:25;2.92;;;0.93;;
13592;SDS011;6867;50.998;4.250;2022-08-03T15:23:53;2.95;;;1.20;;
13592;SDS011;6867;50.998;4.250;2022-08-03T15:26:20;3.08;;;1.33;;
13592;SDS011;6867;50.998;4.250;2022-08-03T15:28:47;2.47;;;0.88;;
13592;SDS011;6867;50.998;4.250;2022-08-03T15:31:13;2.67;;;0.88;;